East Harwich, Massachusetts
Current Conditions -  °F | °C
As of 7:52 AM on Friday 31 Oct 2014 (Local Time) from KCQX Reporting Station
Overcast Overcast  
Wind Chill: 51°   Ceiling: 5500
Heat Index: 51°   Visibility: 10mi
Dew Point: 44°   Wind: 8mph
Humidity: 77%   Direction: 50°NE
Pressure: 30.02"   Gusts: NA
Location:  41.7026°N, 70.0637°W
Report Text: KCQX 311152Z AUTO 05007KT 10SM OVC055 11/07 A3002 RMK AO2 SLP166 T01060067 10106 20072 52010
Loading
Personal Weather Stations






























Interactive Weather Map
Tropical Storm Tracking
New forecast layout! Learn more

10-Day Weather Forecast

Advertisements
Track Severe Weather on mobile